createdAt,value
2018-09-18T00:00:03.205Z,0
2018-09-18T00:05:03.147Z,0
2018-09-18T00:10:02.922Z,0
2018-09-18T00:15:03.536Z,0
2018-09-18T00:20:03.124Z,0
2018-09-18T00:25:02.770Z,0
2018-09-18T00:30:03.350Z,0
2018-09-18T00:35:02.891Z,0
2018-09-18T00:40:02.598Z,0
2018-09-18T00:45:03.178Z,0
2018-09-18T00:50:02.870Z,0
2018-09-18T00:55:03.494Z,0
2018-09-18T01:00:03.128Z,0
2018-09-18T01:05:02.668Z,0
2018-09-18T01:10:03.395Z,0
2018-09-18T01:15:02.939Z,0
2018-09-18T01:20:02.626Z,0
2018-09-18T01:25:03.204Z,0
2018-09-18T01:30:02.814Z,0
2018-09-18T01:35:03.451Z,0
2018-09-18T01:40:03.039Z,0
2018-09-18T01:45:02.781Z,0
2018-09-18T01:50:03.337Z,0
2018-09-18T01:55:02.895Z,0
2018-09-18T02:00:02.567Z,0
2018-09-18T02:05:03.225Z,0
2018-09-18T02:10:02.871Z,0
2018-09-18T02:15:03.547Z,0
2018-09-18T02:20:03.203Z,0
2018-09-18T02:25:02.797Z,0
2018-09-18T02:30:03.509Z,0
2018-09-18T02:35:03.062Z,0
2018-09-18T02:40:02.653Z,0
2018-09-18T02:45:03.358Z,0
2018-09-18T02:50:03.162Z,0
2018-09-18T02:55:02.729Z,0
2018-09-18T03:00:03.476Z,0
2018-09-18T03:05:03.117Z,0
2018-09-18T03:10:02.682Z,0
2018-09-18T03:15:03.329Z,0
2018-09-18T03:20:02.902Z,0
2018-09-18T03:25:03.599Z,0
2018-09-18T03:30:03.303Z,0
2018-09-18T03:35:02.836Z,0
2018-09-18T03:40:03.569Z,0
2018-09-18T03:45:03.271Z,0
2018-09-18T03:50:02.923Z,0
2018-09-18T03:55:02.670Z,0
2018-09-18T04:00:03.359Z,0
2018-09-18T04:05:02.846Z,0
2018-09-18T04:10:03.531Z,0
2018-09-18T04:15:03.129Z,0
2018-09-18T04:20:02.653Z,0
2018-09-18T04:25:03.341Z,0
2018-09-18T04:30:03.055Z,0
2018-09-18T04:35:02.738Z,0
2018-09-18T04:40:03.515Z,0
2018-09-18T04:45:03.064Z,0
2018-09-18T04:50:02.857Z,0
2018-09-18T04:55:03.979Z,0
2018-09-18T05:00:02.836Z,0
2018-09-18T05:05:03.538Z,0
2018-09-18T05:10:03.245Z,0
2018-09-18T05:15:02.811Z,0
2018-09-18T05:20:03.485Z,0
2018-09-18T05:25:03.135Z,1
2018-09-18T05:30:02.838Z,0
2018-09-18T05:35:03.501Z,0
2018-09-18T05:40:03.163Z,0
2018-09-18T05:45:02.822Z,0
2018-09-18T05:50:03.506Z,3
2018-09-18T05:55:03.109Z,1
2018-09-18T06:00:03.046Z,0
2018-09-18T06:05:02.689Z,2
2018-09-18T06:10:03.388Z,0
2018-09-18T06:15:02.899Z,1
2018-09-18T06:20:03.582Z,0
2018-09-18T06:25:03.263Z,0
2018-09-18T06:30:02.892Z,0
2018-09-18T06:35:03.488Z,0
2018-09-18T06:40:03.123Z,0
2018-09-18T06:45:02.741Z,0
2018-09-18T06:50:03.401Z,3
2018-09-18T06:55:02.954Z,1
2018-09-18T07:00:02.546Z,1
2018-09-18T07:05:03.207Z,1
2018-09-18T07:10:02.790Z,1
2018-09-18T07:15:03.445Z,2
2018-09-18T07:20:03.060Z,3
2018-09-18T07:25:02.784Z,2
2018-09-18T07:30:03.385Z,2
2018-09-18T07:35:02.834Z,2
2018-09-18T07:40:02.590Z,3
2018-09-18T07:45:03.151Z,1
2018-09-18T07:50:02.820Z,3
2018-09-18T07:55:03.368Z,5
2018-09-18T08:00:02.867Z,2
2018-09-18T08:05:03.457Z,5
2018-09-18T08:10:03.154Z,7
2018-09-18T08:15:03.132Z,2
2018-09-18T08:20:02.752Z,6
2018-09-18T08:25:03.536Z,7
2018-09-18T08:30:03.341Z,5
2018-09-18T08:35:02.926Z,2
2018-09-18T08:40:03.246Z,3
2018-09-18T08:45:03.176Z,6
2018-09-18T08:50:02.770Z,6
2018-09-18T08:55:03.460Z,7
2018-09-18T09:00:03.119Z,5
2018-09-18T09:05:02.700Z,6
2018-09-18T09:10:03.978Z,5
2018-09-18T09:15:03.155Z,7
2018-09-18T09:20:03.019Z,6
2018-09-18T09:25:02.770Z,5
2018-09-18T09:30:04.137Z,5
2018-09-18T09:35:03.130Z,5
2018-09-18T09:40:02.748Z,7
2018-09-18T09:45:03.800Z,5
2018-09-18T09:50:02.791Z,4
2018-09-18T09:55:03.426Z,5
2018-09-18T10:00:03.077Z,7
2018-09-18T10:05:02.775Z,6
2018-09-18T10:10:03.565Z,5
2018-09-18T10:15:03.248Z,6
2018-09-18T10:20:02.950Z,7
2018-09-18T10:25:04.119Z,9
2018-09-18T10:30:03.027Z,10
2018-09-18T10:35:03.164Z,8
2018-09-18T10:40:02.915Z,7
2018-09-18T10:45:02.746Z,6
2018-09-18T10:50:03.391Z,8
2018-09-18T10:55:02.988Z,8
2018-09-18T11:00:02.772Z,6
2018-09-18T11:05:03.509Z,8
2018-09-18T11:10:03.967Z,10
2018-09-18T11:15:03.186Z,9
2018-09-18T11:20:03.755Z,9
2018-09-18T11:25:03.045Z,7
2018-09-18T11:30:02.699Z,8
2018-09-18T11:35:03.445Z,7
2018-09-18T11:40:03.267Z,7
2018-09-18T11:45:02.939Z,9
2018-09-18T11:50:03.793Z,5
2018-09-18T11:55:03.520Z,8
2018-09-18T12:00:03.129Z,9
2018-09-18T12:05:03.191Z,9
2018-09-18T12:10:03.228Z,7
2018-09-18T12:15:02.908Z,9
2018-09-18T12:20:03.467Z,8
2018-09-18T12:25:02.986Z,13
2018-09-18T12:30:03.481Z,7
2018-09-18T12:35:03.123Z,11
2018-09-18T12:40:02.807Z,8
2018-09-18T12:45:03.410Z,6
2018-09-18T12:50:05.257Z,9
2018-09-18T12:55:02.597Z,7
2018-09-18T13:00:03.547Z,11
2018-09-18T13:05:03.260Z,11
2018-09-18T13:10:03.435Z,10
2018-09-18T13:15:03.505Z,10
2018-09-18T13:20:03.384Z,9
2018-09-18T13:25:03.250Z,14
2018-09-18T13:30:02.827Z,7
2018-09-18T13:35:03.521Z,11
2018-09-18T13:40:03.249Z,8
2018-09-18T13:45:02.948Z,4
2018-09-18T13:50:02.658Z,9
2018-09-18T13:55:03.305Z,9
2018-09-18T14:00:02.960Z,11
2018-09-18T14:05:02.639Z,7
2018-09-18T14:10:03.455Z,6
2018-09-18T14:15:04.359Z,8
2018-09-18T14:20:03.311Z,8
2018-09-18T14:25:02.824Z,8
2018-09-18T14:30:03.433Z,7
2018-09-18T14:35:03.011Z,9
2018-09-18T14:40:02.688Z,13
2018-09-18T14:45:03.301Z,7
2018-09-18T14:50:02.935Z,8
2018-09-18T14:55:02.617Z,7
2018-09-18T15:00:03.785Z,11
2018-09-18T15:05:02.799Z,8
2018-09-18T15:10:03.431Z,7
2018-09-18T15:15:03.044Z,5
2018-09-18T15:20:02.744Z,9
2018-09-18T15:25:03.450Z,8
2018-09-18T15:30:03.045Z,10
2018-09-18T15:35:02.884Z,8
2018-09-18T15:40:03.113Z,7
2018-09-18T15:45:02.997Z,7
2018-09-18T15:50:02.805Z,9
2018-09-18T15:55:03.813Z,7
2018-09-18T16:00:02.602Z,8
2018-09-18T16:05:03.334Z,7
2018-09-18T16:10:03.047Z,9
2018-09-18T16:15:02.880Z,7
2018-09-18T16:20:03.809Z,6
2018-09-18T16:25:03.353Z,7
2018-09-18T16:30:03.202Z,8
2018-09-18T16:35:02.787Z,7
2018-09-18T16:40:03.816Z,5
2018-09-18T16:45:03.572Z,7
2018-09-18T16:50:03.162Z,6
2018-09-18T16:55:03.838Z,5
2018-09-18T17:00:02.759Z,5
2018-09-18T17:05:03.468Z,7
2018-09-18T17:10:03.072Z,7
2018-09-18T17:15:02.626Z,4
2018-09-18T17:20:03.356Z,8
2018-09-18T17:25:02.942Z,9
2018-09-18T17:30:02.627Z,5
2018-09-18T17:35:03.258Z,7
2018-09-18T17:40:03.073Z,7
2018-09-18T17:45:02.793Z,3
2018-09-18T17:50:03.724Z,4
2018-09-18T17:55:02.573Z,7
2018-09-18T18:00:03.274Z,6
2018-09-18T18:05:03.085Z,6
2018-09-18T18:10:02.777Z,5
2018-09-18T18:15:03.572Z,4
2018-09-18T18:20:03.200Z,3
2018-09-18T18:25:03.005Z,6
2018-09-18T18:30:02.741Z,4
2018-09-18T18:35:03.405Z,4
2018-09-18T18:40:03.075Z,3
2018-09-18T18:45:02.900Z,2
2018-09-18T18:50:02.669Z,2
2018-09-18T18:55:03.527Z,2
2018-09-18T19:00:03.125Z,2
2018-09-18T19:05:02.851Z,0
2018-09-18T19:10:02.702Z,7
2018-09-18T19:15:03.596Z,5
2018-09-18T19:20:03.368Z,3
2018-09-18T19:25:03.415Z,3
2018-09-18T19:30:03.229Z,3
2018-09-18T19:35:03.206Z,0
2018-09-18T19:40:03.109Z,0
2018-09-18T19:45:02.651Z,0
2018-09-18T19:50:03.361Z,0
2018-09-18T19:55:02.985Z,0
2018-09-18T20:00:02.722Z,0
2018-09-18T20:05:03.412Z,0
2018-09-18T20:10:03.056Z,0
2018-09-18T20:15:03.224Z,0
2018-09-18T20:20:02.790Z,0
2018-09-18T20:25:03.459Z,0
2018-09-18T20:30:03.037Z,0
2018-09-18T20:35:02.760Z,2
2018-09-18T20:40:03.473Z,0
2018-09-18T20:45:03.150Z,0
2018-09-18T20:50:02.750Z,0
2018-09-18T20:55:03.493Z,0
2018-09-18T21:00:03.058Z,1
2018-09-18T21:05:02.680Z,0
2018-09-18T21:10:03.443Z,0
2018-09-18T21:15:03.015Z,0
2018-09-18T21:20:02.574Z,0
2018-09-18T21:25:03.189Z,0
2018-09-18T21:30:02.712Z,1
2018-09-18T21:35:03.300Z,0
2018-09-18T21:40:03.031Z,2
2018-09-18T21:45:02.709Z,2
2018-09-18T21:50:03.287Z,0
2018-09-18T21:55:02.936Z,0
2018-09-18T22:00:02.694Z,0
2018-09-18T22:05:03.353Z,0
2018-09-18T22:10:02.987Z,0
2018-09-18T22:15:02.704Z,2
2018-09-18T22:20:03.336Z,2
2018-09-18T22:25:02.997Z,2
2018-09-18T22:30:02.633Z,2
2018-09-18T22:35:03.279Z,1
2018-09-18T22:40:02.901Z,2
2018-09-18T22:45:03.497Z,2
2018-09-18T22:50:03.192Z,2
2018-09-18T22:55:02.871Z,2
2018-09-18T23:00:03.429Z,0
2018-09-18T23:05:02.669Z,0
2018-09-18T23:10:03.247Z,0
2018-09-18T23:15:02.860Z,0
2018-09-18T23:20:03.526Z,1
2018-09-18T23:25:03.144Z,0
2018-09-18T23:30:02.862Z,1
2018-09-18T23:35:03.429Z,3
2018-09-18T23:40:03.144Z,1
2018-09-18T23:45:02.804Z,2
2018-09-18T23:50:03.393Z,2
2018-09-18T23:55:02.901Z,0
